Time;durP1;ratioP1;P1;durP2;ratioP2;P2;SDS_P1;SDS_P2;PMS_P1;PMS_P2;Temp;Humidity;BMP_temperature;BMP_pressure;BME280_temperature;BME280_humidity;BME280_pressure;Samples;Min_cycle;Max_cycle;Signal;HPM_P1;HPM_P2
2021/06/05 00:01:38;;;;;;;7.17;6.53;;;;;;;;;;5028011;28;20218;-65
2021/06/05 00:04:05;;;;;;;6.60;6.07;;;;;;;;;;5009860;28;20185;-64
2021/06/05 00:06:31;;;;;;;7.30;6.63;;;;;;;;;;5030177;28;20208;-65
2021/06/05 00:08:57;;;;;;;7.37;6.77;;;;;;;;;;5018971;28;20259;-65
2021/06/05 00:11:25;;;;;;;6.77;6.17;;;;;;;;;;5023352;28;20262;-65
2021/06/05 00:13:56;;;;;;;7.50;6.70;;;;;;;;;;5007445;28;20287;-66
2021/06/05 00:16:24;;;;;;;6.90;6.27;;;;;;;;;;5010699;28;20189;-65
2021/06/05 00:18:50;;;;;;;7.27;6.67;;;;;;;;;;5010133;28;20252;-65
2021/06/05 00:21:17;;;;;;;6.80;6.23;;;;;;;;;;5026770;28;20633;-63
2021/06/05 00:23:43;;;;;;;7.20;6.60;;;;;;;;;;5011097;28;20182;-63
2021/06/05 00:26:10;;;;;;;7.43;6.77;;;;;;;;;;5028009;28;20257;-63
2021/06/05 00:28:36;;;;;;;7.00;6.30;;;;;;;;;;5027909;28;20559;-62
2021/06/05 00:31:02;;;;;;;7.13;6.50;;;;;;;;;;5010107;28;20268;-63
2021/06/05 00:33:29;;;;;;;7.13;6.53;;;;;;;;;;5029249;28;20189;-63
2021/06/05 00:35:55;;;;;;;7.80;7.10;;;;;;;;;;5010570;28;20663;-63
2021/06/05 00:38:21;;;;;;;7.00;6.30;;;;;;;;;;5027834;28;20193;-63
2021/06/05 00:40:53;;;;;;;7.30;6.70;;;;;;;;;;5028420;28;20644;-63
2021/06/05 00:43:20;;;;;;;6.43;5.87;;;;;;;;;;5030066;28;20176;-63
2021/06/05 00:45:47;;;;;;;6.60;6.10;;;;;;;;;;5029531;28;20166;-63
2021/06/05 00:48:14;;;;;;;7.87;7.17;;;;;;;;;;5032345;28;20177;-64
2021/06/05 00:50:41;;;;;;;7.63;7.03;;;;;;;;;;5012977;28;20178;-63
2021/06/05 00:53:08;;;;;;;8.60;7.87;;;;;;;;;;5031590;28;20177;-64
2021/06/05 00:55:36;;;;;;;8.10;7.40;;;;;;;;;;5031972;28;20216;-64
2021/06/05 00:58:02;;;;;;;8.60;7.90;;;;;;;;;;5031659;28;20170;-63
2021/06/05 01:00:34;;;;;;;8.80;8.00;;;;;;;;;;5032466;28;20174;-63
2021/06/05 01:03:01;;;;;;;9.03;8.30;;;;;;;;;;5032061;28;20206;-63
2021/06/05 01:05:28;;;;;;;8.17;7.47;;;;;;;;;;5031915;28;20181;-63
2021/06/05 01:07:58;;;;;;;7.80;7.10;;;;;;;;;;5032031;28;20256;-63
2021/06/05 01:10:28;;;;;;;8.07;7.20;;;;;;;;;;5029665;28;20186;-63
2021/06/05 01:13:08;;;;;;;7.57;6.87;;;;;;;;;;5032025;28;20245;-63
2021/06/05 01:15:38;;;;;;;7.83;7.20;;;;;;;;;;5032081;28;20186;-65
2021/06/05 01:18:07;;;;;;;8.60;7.80;;;;;;;;;;5030878;28;20535;-63
2021/06/05 01:20:33;;;;;;;8.17;7.47;;;;;;;;;;5014624;28;20437;-65
2021/06/05 01:23:09;;;;;;;7.83;7.13;;;;;;;;;;5031910;28;20539;-63
2021/06/05 01:25:53;;;;;;;8.13;7.43;;;;;;;;;;5013500;28;20768;-63
2021/06/05 01:28:22;;;;;;;7.70;7.10;;;;;;;;;;5032029;28;20182;-63
2021/06/05 01:30:50;;;;;;;7.33;6.73;;;;;;;;;;5030153;28;20175;-63
2021/06/05 01:33:18;;;;;;;7.37;6.70;;;;;;;;;;5032169;28;20630;-63
2021/06/05 01:35:44;;;;;;;7.70;6.90;;;;;;;;;;5013667;28;20240;-63
2021/06/05 01:38:11;;;;;;;7.20;6.50;;;;;;;;;;5031813;28;20197;-63
2021/06/05 01:40:38;;;;;;;6.93;6.33;;;;;;;;;;5011248;28;20649;-62
2021/06/05 01:43:05;;;;;;;6.97;6.47;;;;;;;;;;5031766;28;20209;-63
2021/06/05 01:45:34;;;;;;;6.70;6.10;;;;;;;;;;5031514;28;20616;-63
2021/06/05 01:48:01;;;;;;;7.40;6.80;;;;;;;;;;5031034;28;20186;-63
2021/06/05 01:50:30;;;;;;;7.83;7.03;;;;;;;;;;5030980;28;20245;-63
2021/06/05 01:52:59;;;;;;;6.90;6.30;;;;;;;;;;5000428;28;20185;-64
2021/06/05 01:55:28;;;;;;;7.80;7.10;;;;;;;;;;5030737;28;20212;-63
2021/06/05 01:57:56;;;;;;;7.37;6.77;;;;;;;;;;5012555;28;20186;-63
2021/06/05 02:00:24;;;;;;;7.67;6.97;;;;;;;;;;5028990;28;20186;-65
2021/06/05 02:02:50;;;;;;;8.60;6.93;;;;;;;;;;5015147;28;20265;-63
2021/06/05 02:05:17;;;;;;;8.30;7.60;;;;;;;;;;5030703;28;20182;-63
2021/06/05 02:07:43;;;;;;;8.00;7.27;;;;;;;;;;5012526;28;20190;-64
2021/06/05 02:10:13;;;;;;;7.73;7.03;;;;;;;;;;5030874;28;20186;-63
2021/06/05 02:12:40;;;;;;;7.83;7.17;;;;;;;;;;5008901;28;20226;-63
2021/06/05 02:15:17;;;;;;;7.40;6.73;;;;;;;;;;5010307;28;20190;-63
2021/06/05 02:17:44;;;;;;;8.27;7.57;;;;;;;;;;5009351;28;20191;-64
2021/06/05 02:20:17;;;;;;;8.33;7.63;;;;;;;;;;5010445;28;20297;-64
2021/06/05 02:22:44;;;;;;;9.50;8.60;;;;;;;;;;5010403;28;20677;-63
2021/06/05 02:25:12;;;;;;;7.97;7.27;;;;;;;;;;5010260;28;20186;-64
2021/06/05 02:27:39;;;;;;;7.00;6.50;;;;;;;;;;5010325;28;20188;-63
2021/06/05 02:30:08;;;;;;;8.80;8.00;;;;;;;;;;5009915;28;20200;-63
2021/06/05 02:32:34;;;;;;;7.70;7.10;;;;;;;;;;5009516;28;20221;-62
2021/06/05 02:35:01;;;;;;;8.37;7.67;;;;;;;;;;5010855;28;20632;-62
2021/06/05 02:37:28;;;;;;;8.40;7.70;;;;;;;;;;5010459;28;20194;-62
2021/06/05 02:39:55;;;;;;;7.70;7.10;;;;;;;;;;5009435;28;20282;-62
2021/06/05 02:42:23;;;;;;;8.33;7.63;;;;;;;;;;5010146;28;20213;-62
2021/06/05 02:44:51;;;;;;;7.93;7.33;;;;;;;;;;5010178;28;20178;-62
2021/06/05 02:47:17;;;;;;;7.67;7.03;;;;;;;;;;5007689;28;20274;-62
2021/06/05 02:49:44;;;;;;;8.50;7.80;;;;;;;;;;5011012;28;20212;-62
2021/06/05 02:52:28;;;;;;;9.90;9.00;;;;;;;;;;5010455;28;20202;-62
2021/06/05 02:54:54;;;;;;;9.43;8.60;;;;;;;;;;5009331;28;20690;-62
2021/06/05 02:57:20;;;;;;;9.40;8.60;;;;;;;;;;5010091;28;20236;-62
2021/06/05 02:59:46;;;;;;;10.83;9.93;;;;;;;;;;5010763;28;20190;-62
2021/06/05 03:02:12;;;;;;;10.43;9.53;;;;;;;;;;5009211;28;20232;-62
2021/06/05 03:04:38;;;;;;;11.43;10.43;;;;;;;;;;5011480;28;20232;-63
2021/06/05 03:07:04;;;;;;;10.90;9.90;;;;;;;;;;5010354;28;20182;-63
2021/06/05 03:09:30;;;;;;;12.47;11.40;;;;;;;;;;5010585;28;20845;-63
2021/06/05 03:11:56;;;;;;;11.27;10.20;;;;;;;;;;5016769;28;20186;-64
2021/06/05 03:14:22;;;;;;;11.60;10.60;;;;;;;;;;5033125;28;20552;-63
2021/06/05 03:16:48;;;;;;;11.63;10.63;;;;;;;;;;5012818;28;20182;-63
2021/06/05 03:19:15;;;;;;;10.87;9.97;;;;;;;;;;5031906;28;20185;-62
2021/06/05 03:21:41;;;;;;;9.97;9.07;;;;;;;;;;5030922;28;20584;-62
2021/06/05 03:24:07;;;;;;;9.67;8.87;;;;;;;;;;5030536;28;20632;-63
2021/06/05 03:26:33;;;;;;;10.37;9.37;;;;;;;;;;5011275;28;20254;-62
2021/06/05 03:28:59;;;;;;;10.63;9.73;;;;;;;;;;5029259;28;20776;-62
2021/06/05 03:31:26;;;;;;;10.10;9.20;;;;;;;;;;5025172;28;20181;-63
2021/06/05 03:33:52;;;;;;;10.20;9.30;;;;;;;;;;5030600;28;20295;-63
2021/06/05 03:36:18;;;;;;;10.00;9.10;;;;;;;;;;5011005;28;20319;-62
2021/06/05 03:38:44;;;;;;;9.47;8.67;;;;;;;;;;5029593;28;20516;-63
2021/06/05 03:41:12;;;;;;;9.27;8.47;;;;;;;;;;5029297;28;20625;-62
2021/06/05 03:43:38;;;;;;;9.50;8.70;;;;;;;;;;5011785;28;20190;-62
2021/06/05 03:46:04;;;;;;;9.20;8.50;;;;;;;;;;5010453;28;20540;-63
2021/06/05 03:48:30;;;;;;;10.70;9.70;;;;;;;;;;5029635;28;20576;-63
2021/06/05 03:50:56;;;;;;;10.73;9.73;;;;;;;;;;5029713;28;20261;-63
2021/06/05 03:53:23;;;;;;;9.87;8.87;;;;;;;;;;5029220;28;20219;-62
2021/06/05 03:55:50;;;;;;;10.07;9.17;;;;;;;;;;5029280;28;20265;-63
2021/06/05 03:58:16;;;;;;;10.40;9.40;;;;;;;;;;5018466;28;20541;-63
2021/06/05 04:00:44;;;;;;;10.70;9.70;;;;;;;;;;5029065;28;20181;-62
2021/06/05 04:03:11;;;;;;;11.03;9.87;;;;;;;;;;5011500;28;20313;-63
2021/06/05 04:05:38;;;;;;;10.70;9.70;;;;;;;;;;5028616;28;20632;-62
2021/06/05 04:08:05;;;;;;;11.43;10.40;;;;;;;;;;5010953;28;20170;-63
2021/06/05 04:10:32;;;;;;;11.90;10.70;;;;;;;;;;5011807;28;20188;-62
2021/06/05 04:12:58;;;;;;;11.23;10.10;;;;;;;;;;5010144;28;20785;-63
2021/06/05 04:15:25;;;;;;;13.57;12.17;;;;;;;;;;5029074;28;20191;-62
2021/06/05 04:18:11;;;;;;;11.93;10.83;;;;;;;;;;5028651;28;20195;-62
2021/06/05 04:20:38;;;;;;;11.47;10.30;;;;;;;;;;5032627;28;20186;-64
2021/06/05 04:23:06;;;;;;;12.13;10.90;;;;;;;;;;5032562;28;20205;-62
2021/06/05 04:25:32;;;;;;;12.20;11.00;;;;;;;;;;5033561;28;20192;-62
2021/06/05 04:27:58;;;;;;;11.30;10.23;;;;;;;;;;5023391;28;20184;-62
2021/06/05 04:30:25;;;;;;;12.77;11.57;;;;;;;;;;5032780;28;20536;-62
2021/06/05 04:32:51;;;;;;;11.50;10.30;;;;;;;;;;5014146;28;20510;-62
2021/06/05 04:35:17;;;;;;;11.93;10.87;;;;;;;;;;5031891;28;20196;-62
2021/06/05 04:37:43;;;;;;;11.70;10.60;;;;;;;;;;5009728;28;20211;-63
2021/06/05 04:40:10;;;;;;;11.63;10.40;;;;;;;;;;5026835;28;20544;-62
2021/06/05 04:42:36;;;;;;;12.13;11.03;;;;;;;;;;5027446;28;20207;-62
2021/06/05 04:45:02;;;;;;;11.20;10.20;;;;;;;;;;5025323;28;20187;-62
2021/06/05 04:47:28;;;;;;;11.67;10.57;;;;;;;;;;5027760;28;20526;-62
2021/06/05 04:49:54;;;;;;;11.23;10.13;;;;;;;;;;5032876;28;20187;-62
2021/06/05 04:52:20;;;;;;;11.17;10.13;;;;;;;;;;5031142;28;20191;-62
2021/06/05 04:54:46;;;;;;;11.00;10.00;;;;;;;;;;5032243;28;20649;-62
2021/06/05 04:57:12;;;;;;;11.33;10.33;;;;;;;;;;5013395;28;20544;-62
2021/06/05 04:59:38;;;;;;;11.70;10.57;;;;;;;;;;5032283;28;20244;-62
2021/06/05 05:02:04;;;;;;;11.23;10.20;;;;;;;;;;5031202;28;20202;-62
2021/06/05 05:04:31;;;;;;;12.43;11.23;;;;;;;;;;5032335;28;20231;-62
2021/06/05 05:06:57;;;;;;;12.60;11.30;;;;;;;;;;5031999;28;20656;-61
2021/06/05 05:09:23;;;;;;;13.83;12.43;;;;;;;;;;5014603;28;20704;-61
2021/06/05 05:11:49;;;;;;;13.53;12.23;;;;;;;;;;5031165;28;20267;-62
2021/06/05 05:14:15;;;;;;;14.63;13.20;;;;;;;;;;5032623;28;20614;-62
2021/06/05 05:16:41;;;;;;;13.83;12.40;;;;;;;;;;5030780;28;20250;-62
2021/06/05 05:19:07;;;;;;;12.20;11.00;;;;;;;;;;5014873;28;20196;-62
2021/06/05 05:21:33;;;;;;;15.17;12.57;;;;;;;;;;5031383;28;20214;-62
2021/06/05 05:24:00;;;;;;;12.27;11.17;;;;;;;;;;5012355;28;20175;-62
2021/06/05 05:26:26;;;;;;;12.47;11.37;;;;;;;;;;5030780;28;20177;-64
2021/06/05 05:28:54;;;;;;;13.27;11.97;;;;;;;;;;5031331;28;20285;-63
2021/06/05 05:31:21;;;;;;;13.30;11.90;;;;;;;;;;5030474;28;20178;-62
2021/06/05 05:33:47;;;;;;;13.27;11.97;;;;;;;;;;5033078;28;20632;-62
2021/06/05 05:36:17;;;;;;;13.63;12.40;;;;;;;;;;5013618;28;20447;-62
2021/06/05 05:38:43;;;;;;;12.33;11.17;;;;;;;;;;5032425;28;20180;-62
2021/06/05 05:41:10;;;;;;;11.67;10.57;;;;;;;;;;5032324;28;20186;-62
2021/06/05 05:43:36;;;;;;;11.40;10.27;;;;;;;;;;5012142;28;20179;-62
2021/06/05 05:46:04;;;;;;;11.23;10.13;;;;;;;;;;5013653;28;20189;-62
2021/06/05 05:48:30;;;;;;;12.10;10.90;;;;;;;;;;5031225;28;20182;-62
2021/06/05 05:50:56;;;;;;;12.03;10.83;;;;;;;;;;5031617;28;20221;-62
2021/06/05 05:53:22;;;;;;;12.03;10.83;;;;;;;;;;5032321;28;20600;-62
2021/06/05 05:55:48;;;;;;;11.33;10.13;;;;;;;;;;5014886;28;20186;-62
2021/06/05 05:58:16;;;;;;;11.47;10.47;;;;;;;;;;5032702;28;20232;-62
2021/06/05 06:00:44;;;;;;;11.57;10.53;;;;;;;;;;5021947;28;20577;-62
2021/06/05 06:03:11;;;;;;;11.10;9.87;;;;;;;;;;5032273;28;20222;-62
2021/06/05 06:05:37;;;;;;;11.20;10.20;;;;;;;;;;5014288;28;20182;-63
2021/06/05 06:08:08;;;;;;;10.67;9.67;;;;;;;;;;5032306;28;20544;-62
2021/06/05 06:10:34;;;;;;;10.53;9.40;;;;;;;;;;5031901;28;20525;-63
2021/06/05 06:13:00;;;;;;;10.90;9.87;;;;;;;;;;5011128;28;20272;-62
2021/06/05 06:15:28;;;;;;;10.93;9.93;;;;;;;;;;5027816;28;20243;-62
2021/06/05 06:17:55;;;;;;;10.63;9.57;;;;;;;;;;5011571;28;20263;-63
2021/06/05 06:20:29;;;;;;;10.07;9.10;;;;;;;;;;5013969;28;20212;-62
2021/06/05 06:22:55;;;;;;;10.33;9.17;;;;;;;;;;5032227;28;20735;-62
2021/06/05 06:25:23;;;;;;;11.83;10.63;;;;;;;;;;5031909;28;20266;-62
2021/06/05 06:27:49;;;;;;;10.33;9.33;;;;;;;;;;5031601;28;20185;-62
2021/06/05 06:30:18;;;;;;;12.53;11.27;;;;;;;;;;5013594;28;20190;-62
2021/06/05 06:32:47;;;;;;;10.60;9.60;;;;;;;;;;5012654;28;20190;-62
2021/06/05 06:35:14;;;;;;;11.13;10.10;;;;;;;;;;5031593;28;20196;-62
2021/06/05 06:37:40;;;;;;;11.70;10.60;;;;;;;;;;5028332;28;20198;-62
2021/06/05 06:40:06;;;;;;;12.90;10.67;;;;;;;;;;5022676;28;20182;-62
2021/06/05 06:42:32;;;;;;;11.50;10.40;;;;;;;;;;5013294;28;20219;-63
2021/06/05 06:44:58;;;;;;;11.67;10.57;;;;;;;;;;5013544;28;20561;-63
2021/06/05 06:47:24;;;;;;;12.17;10.97;;;;;;;;;;5016658;28;20568;-62
2021/06/05 06:49:50;;;;;;;10.60;9.50;;;;;;;;;;5025492;28;21748;-62
2021/06/05 06:52:16;;;;;;;11.30;10.23;;;;;;;;;;5027019;28;20182;-62
2021/06/05 06:54:42;;;;;;;10.93;9.87;;;;;;;;;;5028751;28;20689;-63
2021/06/05 06:57:08;;;;;;;11.10;10.10;;;;;;;;;;5012394;28;20228;-62
2021/06/05 06:59:35;;;;;;;10.97;9.97;;;;;;;;;;5029897;28;20587;-62
2021/06/05 07:02:01;;;;;;;12.63;11.30;;;;;;;;;;5030156;28;20669;-62
2021/06/05 07:04:27;;;;;;;12.30;11.10;;;;;;;;;;5013437;28;20179;-61
2021/06/05 07:06:53;;;;;;;11.73;10.63;;;;;;;;;;5027176;28;20657;-62
2021/06/05 07:09:19;;;;;;;12.93;11.70;;;;;;;;;;5025840;28;20425;-61
2021/06/05 07:11:45;;;;;;;12.50;11.20;;;;;;;;;;5028834;28;20182;-61
2021/06/05 07:14:11;;;;;;;13.77;12.43;;;;;;;;;;5028393;28;20189;-61
2021/06/05 07:16:38;;;;;;;14.43;13.00;;;;;;;;;;5028692;28;20183;-62
2021/06/05 07:19:06;;;;;;;14.63;13.23;;;;;;;;;;5010953;28;20564;-61
2021/06/05 07:21:32;;;;;;;20.53;18.37;;;;;;;;;;5029630;28;20206;-64
2021/06/05 07:23:58;;;;;;;22.83;20.43;;;;;;;;;;5026267;28;20195;-65
2021/06/05 07:26:25;;;;;;;25.60;22.83;;;;;;;;;;5012442;28;20192;-59
2021/06/05 07:28:53;;;;;;;27.87;24.93;;;;;;;;;;5030117;28;20177;-59
2021/06/05 07:31:23;;;;;;;26.67;23.87;;;;;;;;;;5026226;28;20862;-59
2021/06/05 07:33:50;;;;;;;30.20;24.77;;;;;;;;;;5028784;28;20185;-59
2021/06/05 07:36:20;;;;;;;27.30;24.60;;;;;;;;;;5027483;28;20186;-59
2021/06/05 07:38:46;;;;;;;27.80;24.83;;;;;;;;;;5028523;28;20174;-60
2021/06/05 07:41:12;;;;;;;29.07;25.93;;;;;;;;;;5027828;28;20189;-60
2021/06/05 07:43:39;;;;;;;28.47;25.53;;;;;;;;;;5011547;28;20190;-60
2021/06/05 07:46:05;;;;;;;28.23;24.77;;;;;;;;;;5028213;28;20591;-59
2021/06/05 07:48:32;;;;;;;26.97;24.27;;;;;;;;;;5029101;28;20217;-59
2021/06/05 07:50:58;;;;;;;31.47;28.37;;;;;;;;;;5010407;28;20501;-59
2021/06/05 07:53:24;;;;;;;28.87;26.07;;;;;;;;;;5028762;28;20456;-59
2021/06/05 07:55:51;;;;;;;30.00;27.00;;;;;;;;;;5029401;28;20178;-59
2021/06/05 07:58:17;;;;;;;30.77;27.47;;;;;;;;;;5008114;28;20186;-60
2021/06/05 08:00:43;;;;;;;28.87;25.97;;;;;;;;;;5008788;28;20186;-59
2021/06/05 08:03:09;;;;;;;29.77;26.83;;;;;;;;;;5025341;28;20229;-59
2021/06/05 08:05:36;;;;;;;30.90;27.67;;;;;;;;;;5028328;28;20166;-60
2021/06/05 08:08:03;;;;;;;29.30;26.03;;;;;;;;;;5026764;28;20190;-59
2021/06/05 08:10:30;;;;;;;32.03;28.07;;;;;;;;;;5026773;28;20190;-59
2021/06/05 08:12:56;;;;;;;32.63;27.77;;;;;;;;;;5028625;28;20375;-58
2021/06/05 08:15:24;;;;;;;34.70;29.27;;;;;;;;;;5028588;28;20189;-59
2021/06/05 08:17:51;;;;;;;35.17;29.00;;;;;;;;;;5027539;28;20656;-59
2021/06/05 08:20:20;;;;;;;37.33;29.87;;;;;;;;;;5028443;28;20186;-63
2021/06/05 08:22:46;;;;;;;38.87;30.00;;;;;;;;;;5028020;28;20203;-63
2021/06/05 08:25:12;;;;;;;38.30;30.47;;;;;;;;;;5028257;28;20192;-62
2021/06/05 08:27:39;;;;;;;37.80;29.97;;;;;;;;;;5017276;28;20183;-63
2021/06/05 08:30:13;;;;;;;37.63;30.10;;;;;;;;;;5029178;28;20581;-63
2021/06/05 08:32:39;;;;;;;43.30;31.27;;;;;;;;;;5009849;28;20197;-63
2021/06/05 08:35:05;;;;;;;43.03;31.57;;;;;;;;;;5028493;28;20192;-64
2021/06/05 08:37:31;;;;;;;43.00;29.83;;;;;;;;;;5028924;28;20218;-63
2021/06/05 08:39:57;;;;;;;46.70;32.43;;;;;;;;;;5028984;28;20191;-64
2021/06/05 08:42:29;;;;;;;42.97;31.30;;;;;;;;;;5029313;28;20665;-63
2021/06/05 08:44:57;;;;;;;44.37;31.23;;;;;;;;;;5011801;28;20186;-64
2021/06/05 08:47:28;;;;;;;40.87;30.03;;;;;;;;;;5010521;28;20175;-64
2021/06/05 08:49:54;;;;;;;41.97;29.57;;;;;;;;;;5029811;28;20181;-64
2021/06/05 08:52:47;;;;;;;44.27;30.77;;;;;;;;;;5011812;28;20193;-64
2021/06/05 08:55:17;;;;;;;42.50;31.53;;;;;;;;;;5025848;28;20200;-64
2021/06/05 08:57:46;;;;;;;46.43;31.93;;;;;;;;;;5014321;28;20185;-64
2021/06/05 09:00:17;;;;;;;46.23;32.77;;;;;;;;;;5028233;28;20185;-64
2021/06/05 09:02:45;;;;;;;48.70;33.23;;;;;;;;;;5025473;28;20331;-64
2021/06/05 09:05:16;;;;;;;49.80;36.20;;;;;;;;;;5014520;28;20178;-64
2021/06/05 09:07:42;;;;;;;52.60;35.87;;;;;;;;;;5033634;28;20178;-63
2021/06/05 09:10:09;;;;;;;46.63;35.57;;;;;;;;;;5029858;28;20320;-64
2021/06/05 09:12:35;;;;;;;43.03;31.70;;;;;;;;;;5011346;28;20230;-64
2021/06/05 09:15:04;;;;;;;42.63;30.00;;;;;;;;;;5029463;28;20186;-63
2021/06/05 09:17:30;;;;;;;43.13;30.97;;;;;;;;;;5030101;28;20269;-64
2021/06/05 09:20:14;;;;;;;42.63;31.23;;;;;;;;;;5011368;28;20178;-64
2021/06/05 09:22:43;;;;;;;45.05;32.85;;;;;;;;;;5010102;28;20469;-63
2021/06/05 09:25:26;;;;;;;40.87;31.33;;;;;;;;;;5013132;28;20182;-64
2021/06/05 09:27:52;;;;;;;36.73;30.27;;;;;;;;;;5031320;28;20178;-64
2021/06/05 09:30:32;;;;;;;36.00;28.80;;;;;;;;;;5030863;28;20182;-63
2021/06/05 09:33:03;;;;;;;36.90;29.10;;;;;;;;;;5020769;28;20182;-63
2021/06/05 09:35:34;;;;;;;36.93;29.40;;;;;;;;;;5029667;28;20182;-65
2021/06/05 09:38:20;;;;;;;35.83;29.83;;;;;;;;;;5014710;28;20648;-64
2021/06/05 09:40:55;;;;;;;37.10;29.40;;;;;;;;;;5015771;28;20195;-64
2021/06/05 09:43:25;;;;;;;36.93;30.03;;;;;;;;;;5030263;28;20551;-63
2021/06/05 09:46:08;;;;;;;38.57;32.30;;;;;;;;;;5010716;28;20682;-64
2021/06/05 09:48:38;;;;;;;38.77;32.43;;;;;;;;;;5031687;28;20192;-64
2021/06/05 09:51:06;;;;;;;43.23;33.60;;;;;;;;;;5013509;28;20185;-63
2021/06/05 09:53:37;;;;;;;39.93;35.63;;;;;;;;;;5012588;28;20178;-63
2021/06/05 09:56:20;;;;;;;38.57;34.00;;;;;;;;;;5007709;28;20182;-64
2021/06/05 09:58:46;;;;;;;38.35;34.33;;;;;;;;;;5021587;28;20505;-65
2021/06/05 10:01:12;;;;;;;39.90;33.93;;;;;;;;;;5029737;28;20174;-63
2021/06/05 10:03:38;;;;;;;35.20;31.50;;;;;;;;;;5014067;28;20177;-64
2021/06/05 10:06:31;;;;;;;39.30;35.07;;;;;;;;;;5031308;28;20224;-62
2021/06/05 10:08:57;;;;;;;37.37;33.37;;;;;;;;;;5016817;28;20284;-64
2021/06/05 10:11:31;;;;;;;38.60;33.47;;;;;;;;;;5029704;28;20190;-63
2021/06/05 10:13:59;;;;;;;37.20;33.17;;;;;;;;;;5007756;28;20233;-65
2021/06/05 10:16:26;;;;;;;37.07;33.07;;;;;;;;;;5027619;28;20248;-63
2021/06/05 10:19:06;;;;;;;35.50;31.07;;;;;;;;;;5015534;28;20643;-63
2021/06/05 10:21:37;;;;;;;43.73;32.30;;;;;;;;;;5031144;28;20210;-63
2021/06/05 10:24:10;;;;;;;37.50;33.53;;;;;;;;;;5032609;28;20177;-63
2021/06/05 10:26:42;;;;;;;36.37;32.43;;;;;;;;;;5034277;28;20172;-63
2021/06/05 10:29:34;;;;;;;35.57;31.80;;;;;;;;;;5037280;28;20200;-64
2021/06/05 10:32:02;;;;;;;32.30;28.47;;;;;;;;;;4994670;28;20196;-64
2021/06/05 10:34:41;;;;;;;34.40;29.23;;;;;;;;;;5039182;28;20181;-63
2021/06/05 10:37:09;;;;;;;38.40;32.33;;;;;;;;;;5017706;28;20260;-69
2021/06/05 10:39:37;;;;;;;35.63;30.90;;;;;;;;;;5031279;28;20509;-68
2021/06/05 10:42:03;;;;;;;36.00;30.50;;;;;;;;;;5030888;28;20203;-68
2021/06/05 10:44:29;;;;;;;34.57;29.77;;;;;;;;;;5013926;28;20176;-70
2021/06/05 10:46:55;;;;;;;35.77;29.73;;;;;;;;;;5034397;28;20175;-62
2021/06/05 10:49:21;;;;;;;35.33;30.53;;;;;;;;;;5032034;28;20204;-59
2021/06/05 10:51:49;;;;;;;32.67;29.23;;;;;;;;;;5025023;28;20187;-61
2021/06/05 10:54:21;;;;;;;36.80;29.87;;;;;;;;;;4996890;28;20201;-61
2021/06/05 10:56:50;;;;;;;33.10;29.07;;;;;;;;;;5030665;28;20446;-63
2021/06/05 10:59:35;;;;;;;39.47;32.43;;;;;;;;;;5011933;28;20660;-60
2021/06/05 11:02:01;;;;;;;36.77;29.47;;;;;;;;;;5031028;28;20201;-62
2021/06/05 11:04:33;;;;;;;36.47;28.63;;;;;;;;;;5033685;28;20182;-60
2021/06/05 11:07:05;;;;;;;34.97;29.60;;;;;;;;;;5032438;28;20182;-59
2021/06/05 11:09:31;;;;;;;40.20;27.80;;;;;;;;;;5032397;28;20179;-58
2021/06/05 11:12:04;;;;;;;37.27;30.30;;;;;;;;;;5033725;28;20648;-59
2021/06/05 11:14:36;;;;;;;34.93;29.13;;;;;;;;;;5017037;28;20654;-59
2021/06/05 11:17:05;;;;;;;42.37;33.80;;;;;;;;;;5013082;28;20193;-58
2021/06/05 11:19:34;;;;;;;44.87;36.40;;;;;;;;;;5015302;28;20181;-59
2021/06/05 11:22:01;;;;;;;38.80;33.70;;;;;;;;;;5032903;28;20248;-59
2021/06/05 11:24:27;;;;;;;41.43;34.03;;;;;;;;;;5031887;28;20182;-60
2021/06/05 11:26:55;;;;;;;41.43;33.23;;;;;;;;;;5014896;28;20185;-58
2021/06/05 11:29:21;;;;;;;40.00;32.13;;;;;;;;;;5033221;28;20210;-60
2021/06/05 11:31:54;;;;;;;43.90;34.83;;;;;;;;;;5023626;28;20201;-60
2021/06/05 11:34:29;;;;;;;39.67;31.67;;;;;;;;;;5032597;28;20293;-60
2021/06/05 11:36:58;;;;;;;39.47;31.80;;;;;;;;;;5032235;28;20189;-64
2021/06/05 11:39:24;;;;;;;39.30;34.23;;;;;;;;;;5008733;28;20182;-59
2021/06/05 11:41:55;;;;;;;41.97;33.50;;;;;;;;;;5029898;28;20316;-58
2021/06/05 11:44:25;;;;;;;39.77;32.73;;;;;;;;;;5012274;28;20215;-59
2021/06/05 11:46:59;;;;;;;44.00;36.37;;;;;;;;;;5013911;28;20179;-59
2021/06/05 11:49:44;;;;;;;47.10;40.33;;;;;;;;;;5015009;28;20283;-59
2021/06/05 11:52:32;;;;;;;55.83;44.23;;;;;;;;;;5032082;28;20183;-56
2021/06/05 11:55:07;;;;;;;58.47;46.10;;;;;;;;;;5018229;28;20206;-59
2021/06/05 11:57:39;;;;;;;59.03;47.17;;;;;;;;;;5014914;28;20236;-59
2021/06/05 12:00:11;;;;;;;62.37;47.70;;;;;;;;;;5017691;28;20216;-61
2021/06/05 12:02:39;;;;;;;71.20;52.30;;;;;;;;;;5055050;28;20204;-60
2021/06/05 12:05:19;;;;;;;73.73;54.87;;;;;;;;;;5052676;28;20176;-57
2021/06/05 12:07:45;;;;;;;80.20;60.17;;;;;;;;;;5028114;28;20434;-62
2021/06/05 12:10:12;;;;;;;76.43;54.73;;;;;;;;;;5032700;28;20666;-60
2021/06/05 12:12:38;;;;;;;76.37;53.73;;;;;;;;;;5034886;28;20213;-62
2021/06/05 12:15:16;;;;;;;87.47;54.70;;;;;;;;;;5035447;28;20522;-57
2021/06/05 12:17:43;;;;;;;74.90;52.20;;;;;;;;;;5035348;28;20194;-59
2021/06/05 12:20:15;;;;;;;67.23;49.40;;;;;;;;;;5036147;28;20574;-59
2021/06/05 12:22:44;;;;;;;68.07;50.13;;;;;;;;;;5032310;28;20201;-62
2021/06/05 12:25:28;;;;;;;73.73;51.00;;;;;;;;;;5029319;28;20229;-58
2021/06/05 12:28:06;;;;;;;64.53;49.97;;;;;;;;;;5030724;28;20652;-61
2021/06/05 12:30:39;;;;;;;75.23;52.53;;;;;;;;;;5027059;28;20216;-60
2021/06/05 12:33:08;;;;;;;71.63;52.50;;;;;;;;;;5026900;28;20170;-58
2021/06/05 12:35:44;;;;;;;72.70;56.20;;;;;;;;;;5011580;28;20425;-65
2021/06/05 12:38:12;;;;;;;72.67;53.37;;;;;;;;;;5029554;28;20293;-60
2021/06/05 12:40:41;;;;;;;73.30;55.10;;;;;;;;;;5025273;28;20174;-60
2021/06/05 12:43:08;;;;;;;74.90;54.03;;;;;;;;;;5010470;28;20742;-61
2021/06/05 12:45:35;;;;;;;72.53;53.87;;;;;;;;;;5010282;28;20699;-62
2021/06/05 12:48:02;;;;;;;75.30;55.53;;;;;;;;;;5021215;28;20240;-61
2021/06/05 12:50:30;;;;;;;80.07;54.70;;;;;;;;;;5012195;28;20265;-60
2021/06/05 12:52:56;;;;;;;77.83;54.60;;;;;;;;;;5027630;28;20174;-60
2021/06/05 12:55:41;;;;;;;81.33;55.80;;;;;;;;;;5006721;28;20174;-60
2021/06/05 12:58:09;;;;;;;84.60;55.90;;;;;;;;;;5023072;28;20200;-62
2021/06/05 13:00:44;;;;;;;84.40;57.90;;;;;;;;;;5028133;28;20190;-63
2021/06/05 13:03:10;;;;;;;92.20;61.13;;;;;;;;;;5006178;28;20212;-64
2021/06/05 13:05:37;;;;;;;92.07;62.23;;;;;;;;;;5006216;28;20174;-63
2021/06/05 13:08:09;;;;;;;104.50;60.13;;;;;;;;;;5010865;28;20209;-64
2021/06/05 13:10:37;;;;;;;96.00;59.33;;;;;;;;;;5022556;28;20181;-63
2021/06/05 13:13:12;;;;;;;86.77;55.37;;;;;;;;;;5009397;28;20210;-63
2021/06/05 13:15:44;;;;;;;85.17;54.80;;;;;;;;;;5023374;28;20178;-65
2021/06/05 13:18:12;;;;;;;81.43;54.07;;;;;;;;;;5025138;28;20170;-63
2021/06/05 13:20:48;;;;;;;79.70;52.83;;;;;;;;;;5027999;28;20240;-62
2021/06/05 13:23:23;;;;;;;83.03;53.00;;;;;;;;;;5021807;28;20213;-62
2021/06/05 13:25:50;;;;;;;73.07;51.47;;;;;;;;;;5020845;28;20185;-62
2021/06/05 13:28:30;;;;;;;77.57;52.30;;;;;;;;;;5022712;28;20625;-62
2021/06/05 13:30:57;;;;;;;79.50;52.63;;;;;;;;;;5019762;28;20186;-60
2021/06/05 13:33:50;;;;;;;82.57;53.57;;;;;;;;;;5028058;28;20184;-59
2021/06/05 13:36:30;;;;;;;66.63;46.97;;;;;;;;;;5025023;28;20194;-60
2021/06/05 13:38:56;;;;;;;65.37;46.07;;;;;;;;;;5021664;28;20213;-59
2021/06/05 13:41:23;;;;;;;66.95;49.67;;;;;;;;;;5008524;28;21140;-60
2021/06/05 13:43:49;;;;;;;60.60;44.77;;;;;;;;;;5024503;28;20652;-59
2021/06/05 13:46:15;;;;;;;57.00;44.70;;;;;;;;;;5017650;28;20178;-59
2021/06/05 13:48:41;;;;;;;67.03;46.10;;;;;;;;;;5003978;28;20274;-60
2021/06/05 13:51:08;;;;;;;68.80;47.40;;;;;;;;;;5011895;28;20189;-59
2021/06/05 13:53:35;;;;;;;67.27;44.00;;;;;;;;;;5013974;28;20674;-59
2021/06/05 13:56:03;;;;;;;60.53;42.40;;;;;;;;;;5030513;28;20181;-62
2021/06/05 13:58:29;;;;;;;57.60;43.50;;;;;;;;;;5014285;28;20277;-62
2021/06/05 14:00:55;;;;;;;50.10;38.63;;;;;;;;;;5029754;28;20540;-63
2021/06/05 14:03:22;;;;;;;46.27;37.97;;;;;;;;;;5010967;28;20213;-63
2021/06/05 14:05:49;;;;;;;44.43;37.80;;;;;;;;;;5011651;28;20636;-64
2021/06/05 14:08:15;;;;;;;46.43;36.33;;;;;;;;;;5014050;28;20178;-64
2021/06/05 14:10:42;;;;;;;41.73;34.77;;;;;;;;;;5031119;28;20695;-64
2021/06/05 14:13:09;;;;;;;37.63;33.00;;;;;;;;;;5029963;28;20240;-64
2021/06/05 14:15:37;;;;;;;40.60;33.60;;;;;;;;;;5008755;28;20209;-65
2021/06/05 14:18:03;;;;;;;44.08;39.28;;;;;;;;;;5025310;28;20492;-64
2021/06/05 14:20:31;;;;;;;37.77;32.97;;;;;;;;;;5029064;28;20174;-63
2021/06/05 14:22:58;;;;;;;36.20;32.50;;;;;;;;;;5031343;28;20196;-63
2021/06/05 14:25:24;;;;;;;35.30;31.47;;;;;;;;;;5030429;28;20260;-63
2021/06/05 14:27:51;;;;;;;35.30;30.83;;;;;;;;;;5012552;28;20186;-62
2021/06/05 14:30:20;;;;;;;38.47;32.13;;;;;;;;;;5012711;28;20197;-63
2021/06/05 14:32:46;;;;;;;35.80;31.93;;;;;;;;;;5029891;28;20288;-63